Accueil
METAR-TAF:

METAR-TAF

Aéroports :

Southampton, Angleterre

Aéroport de Southampton

latitude: 50-54N, longitude: 001-24W, altitude: 9 m

Observation

Le bulletin a été fait il y a 30 minutes, à 20:20 UTC
Vent 5 kt de ouest/sud-ouest
Température 11°C
Humidité 76%
Pression 1019 hPa
Visibilité 10 km ou plus
Quelques nuages à une hauteur de 3000 ft

METAR: EGHI 222020Z 25005KT 9999 FEW030 11/07 Q1019

Heure: 21:50 (20:50 UTC)

Prévision

Le bulletin a été fait il y a 3 heures et 52 minutes, à 16:58 UTC
Prévision valable du 22 à 18 UTC au 22 à 22 UTC
Vent 10 kt de ouest
Visibilité 10 km ou plus
Nuages épars à une hauteur de 3500 ft
Probabilité 30% :
Temporairement
du 22 à 18 UTC au 22 à 20 UTC
Visibilité: 9000 m
faibles averses de pluie

TAF: EGHI 221658Z 2218/2222 27010KT 9999 SCT035 PROB30 TEMPO 2218/2220 9000 -SHRA

Observations et prévisions météorologiques de plus de 4000 aéroports (messages METAR et TAF).

Les stations disponibles sont représentées par des disques jaunes et rouges sur la carte.

Passer la souris dessus pour voir le nom de la station.

Cliquer dessus pour voir les observations et prévisions météorologiques.

Pour changer de carte: cliquez sur les boutons verts avec une croix noire pour zoomer, sur le bouton vert avec un tiret pour effectuer un zoom arrière, ou sur les flèches vertes pour les cartes adjacentes.


METAR-TAF: